Time;durP1;ratioP1;P1;durP2;ratioP2;P2;SDS_P1;SDS_P2;PMS_P1;PMS_P2;Temp;Humidity;BMP_temperature;BMP_pressure;BME280_temperature;BME280_humidity;BME280_pressure;Samples;Min_cycle;Max_cycle;Signal;HPM_P1;HPM_P2
2021/08/12 03:45:00;;;;;;;11.87;4.60;;;;;;;;;;4874951;29;22012;-75
2021/08/12 03:47:27;;;;;;;14.20;5.23;;;;;;;;;;4895631;29;20299;-75
2021/08/12 03:49:54;;;;;;;9.70;5.43;;;;;;;;;;4874200;29;20236;-75
2021/08/12 03:52:21;;;;;;;12.30;5.60;;;;;;;;;;4856110;29;20672;-75
2021/08/12 03:54:48;;;;;;;13.97;6.57;;;;;;;;;;4860060;29;20212;-76
2021/08/12 03:57:15;;;;;;;16.93;7.20;;;;;;;;;;4857833;29;20214;-76
2021/08/12 03:59:42;;;;;;;15.93;6.50;;;;;;;;;;4857479;29;20679;-75
2021/08/12 04:02:11;;;;;;;14.23;6.03;;;;;;;;;;4856911;29;20217;-76
2021/08/12 04:04:38;;;;;;;21.07;6.53;;;;;;;;;;4857680;29;20634;-75
2021/08/12 04:07:05;;;;;;;24.70;7.00;;;;;;;;;;4857567;29;20209;-75
2021/08/12 04:09:33;;;;;;;13.23;6.17;;;;;;;;;;4858147;29;20320;-75
2021/08/12 04:12:00;;;;;;;15.23;6.50;;;;;;;;;;4857934;29;20233;-76
2021/08/12 04:14:27;;;;;;;13.40;5.93;;;;;;;;;;4856241;29;20296;-75
2021/08/12 04:16:54;;;;;;;14.57;6.10;;;;;;;;;;4856589;29;20209;-76
2021/08/12 04:19:25;;;;;;;13.17;6.37;;;;;;;;;;4857422;29;20582;-75
2021/08/12 04:21:52;;;;;;;15.67;5.90;;;;;;;;;;4856578;29;20513;-75
2021/08/12 04:24:19;;;;;;;19.57;6.57;;;;;;;;;;4859124;29;20678;-76
2021/08/12 04:26:46;;;;;;;12.33;6.43;;;;;;;;;;4857993;29;20692;-75
2021/08/12 04:29:13;;;;;;;16.40;6.17;;;;;;;;;;4855611;29;20223;-74
2021/08/12 04:31:40;;;;;;;15.07;6.67;;;;;;;;;;4856466;29;20233;-74
2021/08/12 04:34:08;;;;;;;18.00;6.77;;;;;;;;;;4855750;29;20300;-75
2021/08/12 04:36:36;;;;;;;12.87;6.80;;;;;;;;;;4855015;29;20608;-74
2021/08/12 04:39:03;;;;;;;18.70;6.73;;;;;;;;;;4855167;29;20209;-74
2021/08/12 04:41:30;;;;;;;14.77;6.60;;;;;;;;;;4854020;29;20226;-75
2021/08/12 04:43:58;;;;;;;12.03;6.73;;;;;;;;;;4854230;29;20694;-73
2021/08/12 04:46:25;;;;;;;19.47;7.53;;;;;;;;;;4861998;29;20684;-76
2021/08/12 04:48:52;;;;;;;20.20;7.00;;;;;;;;;;4863271;29;20214;-75
2021/08/12 04:51:19;;;;;;;19.23;6.63;;;;;;;;;;4861547;29;20239;-75
2021/08/12 04:53:47;;;;;;;14.03;6.93;;;;;;;;;;4863385;29;20292;-75
2021/08/12 04:56:15;;;;;;;17.40;6.43;;;;;;;;;;4862973;29;20235;-75
2021/08/12 04:58:42;;;;;;;14.40;6.83;;;;;;;;;;4865141;29;20213;-75
2021/08/12 05:01:09;;;;;;;16.90;6.30;;;;;;;;;;4864989;29;20656;-75
2021/08/12 05:03:36;;;;;;;17.10;6.53;;;;;;;;;;4862722;29;20217;-76
2021/08/12 05:06:03;;;;;;;12.47;6.57;;;;;;;;;;4864497;29;20520;-75
2021/08/12 05:08:30;;;;;;;15.97;6.50;;;;;;;;;;4862366;29;20211;-75
2021/08/12 05:10:59;;;;;;;11.37;6.30;;;;;;;;;;4861997;29;20543;-77
2021/08/12 05:13:26;;;;;;;14.17;6.30;;;;;;;;;;4863804;29;20215;-76
2021/08/12 05:15:53;;;;;;;16.27;6.57;;;;;;;;;;4864693;29;20212;-75
2021/08/12 05:18:21;;;;;;;13.20;6.23;;;;;;;;;;4862445;29;20213;-75
2021/08/12 05:20:48;;;;;;;9.37;6.00;;;;;;;;;;4861341;29;20696;-76
2021/08/12 05:23:15;;;;;;;11.63;5.93;;;;;;;;;;4861796;29;20209;-75
2021/08/12 05:25:44;;;;;;;11.13;6.00;;;;;;;;;;4861626;29;20301;-76
2021/08/12 05:28:13;;;;;;;14.27;5.77;;;;;;;;;;4863974;29;20616;-75
2021/08/12 05:30:40;;;;;;;15.87;5.97;;;;;;;;;;4862230;29;20228;-76
2021/08/12 05:33:07;;;;;;;10.93;5.50;;;;;;;;;;4862688;29;20211;-75
2021/08/12 05:35:34;;;;;;;21.37;5.83;;;;;;;;;;4862602;29;20213;-76
2021/08/12 05:38:01;;;;;;;10.00;5.70;;;;;;;;;;4861828;29;20217;-76
2021/08/12 05:40:29;;;;;;;9.67;5.73;;;;;;;;;;4856935;29;20244;-76
2021/08/12 05:42:56;;;;;;;16.73;5.30;;;;;;;;;;4856802;29;20216;-76
2021/08/12 05:45:24;;;;;;;12.23;5.60;;;;;;;;;;4856205;29;20217;-76
2021/08/12 05:47:51;;;;;;;10.73;5.63;;;;;;;;;;4854199;29;20303;-76
2021/08/12 05:50:19;;;;;;;10.40;4.93;;;;;;;;;;4854352;29;20502;-76
2021/08/12 05:52:46;;;;;;;9.30;4.63;;;;;;;;;;4854893;29;20308;-76
2021/08/12 05:55:13;;;;;;;8.23;4.87;;;;;;;;;;4855685;29;20791;-76
2021/08/12 05:57:40;;;;;;;9.07;4.73;;;;;;;;;;4857207;29;20205;-76
2021/08/12 06:00:08;;;;;;;9.10;4.20;;;;;;;;;;4855912;29;20237;-78
2021/08/12 06:02:36;;;;;;;6.30;4.03;;;;;;;;;;4854836;29;20807;-76
2021/08/12 06:05:03;;;;;;;9.67;4.53;;;;;;;;;;4859163;29;20685;-77
2021/08/12 06:07:31;;;;;;;6.70;4.50;;;;;;;;;;4860286;29;20213;-76
2021/08/12 06:09:58;;;;;;;14.80;4.10;;;;;;;;;;4858915;29;20239;-76
2021/08/12 06:12:25;;;;;;;9.90;4.30;;;;;;;;;;4861762;29;20740;-76
2021/08/12 06:14:52;;;;;;;7.00;4.10;;;;;;;;;;4869638;29;20204;-76
2021/08/12 06:17:19;;;;;;;7.40;4.53;;;;;;;;;;4871890;29;20299;-76
2021/08/12 06:19:48;;;;;;;7.03;3.73;;;;;;;;;;4867835;29;20259;-77
2021/08/12 06:22:15;;;;;;;10.80;4.47;;;;;;;;;;4872258;29;20296;-77
2021/08/12 06:24:42;;;;;;;9.37;3.90;;;;;;;;;;4865846;29;20213;-77
2021/08/12 06:27:09;;;;;;;7.33;4.00;;;;;;;;;;4867580;29;20297;-76
2021/08/12 06:29:36;;;;;;;7.73;4.00;;;;;;;;;;4862598;29;20232;-77
2021/08/12 06:32:04;;;;;;;10.37;3.90;;;;;;;;;;4865263;29;20243;-77
2021/08/12 06:34:31;;;;;;;6.93;3.13;;;;;;;;;;4863144;29;20206;-76
2021/08/12 06:36:59;;;;;;;5.97;3.40;;;;;;;;;;4868944;29;20295;-76
2021/08/12 06:39:26;;;;;;;7.07;3.30;;;;;;;;;;4870064;29;20296;-77
2021/08/12 06:41:54;;;;;;;5.87;3.83;;;;;;;;;;4869709;29;20212;-76
2021/08/12 06:44:21;;;;;;;8.50;3.73;;;;;;;;;;4866082;29;20324;-77
2021/08/12 06:46:48;;;;;;;7.50;3.67;;;;;;;;;;4866543;29;20214;-77
2021/08/12 06:49:15;;;;;;;9.73;3.70;;;;;;;;;;4866636;29;20593;-78
2021/08/12 06:51:42;;;;;;;9.03;3.60;;;;;;;;;;4863592;29;20732;-75
2021/08/12 06:54:11;;;;;;;6.73;3.67;;;;;;;;;;4866800;29;20305;-75
2021/08/12 06:56:38;;;;;;;6.30;3.60;;;;;;;;;;4864896;29;20230;-76
2021/08/12 06:59:05;;;;;;;8.60;3.90;;;;;;;;;;4867362;29;20311;-75
2021/08/12 07:01:32;;;;;;;6.33;2.83;;;;;;;;;;4865344;29;20325;-75
2021/08/12 07:03:59;;;;;;;7.80;3.77;;;;;;;;;;4864986;29;20220;-75
2021/08/12 07:06:27;;;;;;;8.77;3.60;;;;;;;;;;4864086;29;20298;-76
2021/08/12 07:08:54;;;;;;;6.00;3.30;;;;;;;;;;4868906;29;20217;-75
2021/08/12 07:11:23;;;;;;;7.00;3.37;;;;;;;;;;4866393;29;20238;-75
2021/08/12 07:13:52;;;;;;;5.77;3.37;;;;;;;;;;4865156;29;20300;-75
2021/08/12 07:16:19;;;;;;;5.43;2.90;;;;;;;;;;4864746;29;20205;-75
2021/08/12 07:18:46;;;;;;;5.83;3.10;;;;;;;;;;4863507;29;20220;-75
2021/08/12 07:21:14;;;;;;;10.32;3.60;;;;;;;;;;4864681;29;20226;-75
2021/08/12 07:23:41;;;;;;;7.07;3.13;;;;;;;;;;4862371;29;20210;-75
2021/08/12 07:26:12;;;;;;;6.87;3.40;;;;;;;;;;4863624;29;20313;-76
2021/08/12 07:28:40;;;;;;;4.60;3.37;;;;;;;;;;4865198;29;20238;-76
2021/08/12 07:31:08;;;;;;;7.40;3.80;;;;;;;;;;4868070;29;20233;-76
2021/08/12 07:33:35;;;;;;;6.60;3.07;;;;;;;;;;4856253;29;20217;-75
2021/08/12 07:36:02;;;;;;;4.88;3.05;;;;;;;;;;4863985;29;20313;-76
2021/08/12 07:38:30;;;;;;;6.18;3.30;;;;;;;;;;4863557;29;20301;-76
2021/08/12 07:40:57;;;;;;;6.95;3.22;;;;;;;;;;4860771;29;20237;-75
2021/08/12 07:43:24;;;;;;;6.03;3.60;;;;;;;;;;4863509;29;20320;-76
2021/08/12 07:45:53;;;;;;;6.32;3.08;;;;;;;;;;4862815;29;20209;-76
2021/08/12 07:48:20;;;;;;;7.72;3.10;;;;;;;;;;4863939;29;20217;-76
2021/08/12 07:50:47;;;;;;;8.02;3.35;;;;;;;;;;4863647;29;20319;-76
2021/08/12 07:53:15;;;;;;;5.35;3.10;;;;;;;;;;4866916;29;20284;-76
2021/08/12 07:55:42;;;;;;;6.45;3.35;;;;;;;;;;4868687;29;20221;-76
2021/08/12 07:58:09;;;;;;;5.45;3.05;;;;;;;;;;4873384;29;20698;-76
2021/08/12 08:00:36;;;;;;;5.25;3.10;;;;;;;;;;4867368;29;20396;-76
2021/08/12 08:03:05;;;;;;;4.78;3.22;;;;;;;;;;4865168;29;20233;-76
2021/08/12 08:05:32;;;;;;;6.63;2.80;;;;;;;;;;4869925;29;20305;-76
2021/08/12 08:07:59;;;;;;;7.88;2.80;;;;;;;;;;4866292;29;20207;-76
2021/08/12 08:10:27;;;;;;;6.55;3.00;;;;;;;;;;4865492;29;20314;-75
2021/08/12 08:12:55;;;;;;;6.43;3.40;;;;;;;;;;4871221;29;20324;-76
2021/08/12 08:15:23;;;;;;;4.85;2.95;;;;;;;;;;4864428;29;20209;-75
2021/08/12 08:17:50;;;;;;;6.35;3.08;;;;;;;;;;4864863;29;20262;-75
2021/08/12 08:20:19;;;;;;;6.70;2.92;;;;;;;;;;4865039;29;20316;-75
2021/08/12 08:22:46;;;;;;;5.75;2.90;;;;;;;;;;4864652;29;20208;-76
2021/08/12 08:25:14;;;;;;;6.78;3.35;;;;;;;;;;4863595;29;20214;-76
2021/08/12 08:27:41;;;;;;;6.63;2.42;;;;;;;;;;4864917;29;21625;-76
2021/08/12 08:30:09;;;;;;;8.57;3.28;;;;;;;;;;4861204;29;20230;-75
2021/08/12 08:32:36;;;;;;;6.68;3.03;;;;;;;;;;4864134;29;20689;-76
2021/08/12 08:35:04;;;;;;;5.15;3.20;;;;;;;;;;4863230;29;20206;-75
2021/08/12 08:37:32;;;;;;;8.40;3.40;;;;;;;;;;4863184;29;20217;-76
2021/08/12 08:39:59;;;;;;;8.18;3.30;;;;;;;;;;4860056;29;20257;-76
2021/08/12 08:42:27;;;;;;;5.40;3.13;;;;;;;;;;4865386;29;20205;-76
2021/08/12 08:44:55;;;;;;;5.97;3.40;;;;;;;;;;4862100;29;20307;-76
2021/08/12 08:47:23;;;;;;;6.82;3.38;;;;;;;;;;4861762;29;20220;-76
2021/08/12 08:49:50;;;;;;;5.32;3.20;;;;;;;;;;4862388;29;20244;-76
2021/08/12 08:52:17;;;;;;;7.78;3.15;;;;;;;;;;4864230;29;20263;-76
2021/08/12 08:54:46;;;;;;;11.50;3.67;;;;;;;;;;4861546;29;20293;-76
2021/08/12 08:57:13;;;;;;;4.75;3.00;;;;;;;;;;4866275;29;20304;-76
2021/08/12 08:59:40;;;;;;;8.48;3.45;;;;;;;;;;4859856;29;20696;-76
2021/08/12 09:02:08;;;;;;;6.68;3.35;;;;;;;;;;4865516;29;20216;-76
2021/08/12 09:04:35;;;;;;;6.03;3.17;;;;;;;;;;4867834;29;20217;-75
2021/08/12 09:07:03;;;;;;;5.22;3.22;;;;;;;;;;4864827;29;20582;-76
2021/08/12 09:09:32;;;;;;;5.85;3.20;;;;;;;;;;4866028;29;20210;-76
2021/08/12 09:12:01;;;;;;;5.82;3.63;;;;;;;;;;4865596;29;20233;-76
2021/08/12 09:14:32;;;;;;;5.83;3.43;;;;;;;;;;4868835;29;20212;-76
2021/08/12 09:17:00;;;;;;;6.33;3.50;;;;;;;;;;4866074;29;20214;-76
2021/08/12 09:19:27;;;;;;;5.20;3.23;;;;;;;;;;4863994;29;20686;-76
2021/08/12 09:21:55;;;;;;;9.77;3.40;;;;;;;;;;4867981;29;20297;-75
2021/08/12 09:24:22;;;;;;;5.77;3.60;;;;;;;;;;4868572;29;20223;-75
2021/08/12 09:26:49;;;;;;;6.03;2.93;;;;;;;;;;4866266;29;20233;-76
2021/08/12 09:29:29;;;;;;;6.13;3.13;;;;;;;;;;4867484;29;20209;-75
2021/08/12 09:31:57;;;;;;;4.50;3.13;;;;;;;;;;4869460;29;20243;-75
2021/08/12 09:34:25;;;;;;;6.37;3.33;;;;;;;;;;4866644;29;20216;-76
2021/08/12 09:37:03;;;;;;;6.20;3.50;;;;;;;;;;4866698;29;20205;-76
2021/08/12 09:39:31;;;;;;;7.37;3.20;;;;;;;;;;4862917;29;20209;-76
2021/08/12 09:41:58;;;;;;;7.07;3.47;;;;;;;;;;4863701;29;20197;-76
2021/08/12 09:44:34;;;;;;;6.30;3.20;;;;;;;;;;4862557;29;20217;-75
2021/08/12 09:47:02;;;;;;;6.13;3.20;;;;;;;;;;4863107;29;20204;-76
2021/08/12 09:49:37;;;;;;;7.30;3.30;;;;;;;;;;4863262;29;20206;-76
2021/08/12 09:52:16;;;;;;;9.03;3.30;;;;;;;;;;4864599;29;20865;-76
2021/08/12 09:54:44;;;;;;;6.77;3.80;;;;;;;;;;4866293;29;20296;-76
2021/08/12 09:57:15;;;;;;;7.53;3.30;;;;;;;;;;4865410;29;20312;-76
2021/08/12 09:59:49;;;;;;;5.60;3.20;;;;;;;;;;4864199;29;20203;-76
2021/08/12 10:02:16;;;;;;;5.27;3.10;;;;;;;;;;4861610;29;20209;-76
2021/08/12 10:04:43;;;;;;;7.13;3.10;;;;;;;;;;4860025;29;20202;-75
2021/08/12 10:07:10;;;;;;;5.30;3.40;;;;;;;;;;4857531;29;20205;-75
2021/08/12 10:09:41;;;;;;;5.93;3.67;;;;;;;;;;4856300;29;20220;-76
2021/08/12 10:12:09;;;;;;;5.70;3.13;;;;;;;;;;4857792;29;20316;-76
2021/08/12 10:14:36;;;;;;;6.27;3.40;;;;;;;;;;4857187;29;20217;-76
2021/08/12 10:17:05;;;;;;;5.83;3.40;;;;;;;;;;4857756;29;20494;-76
2021/08/12 10:19:32;;;;;;;6.13;3.40;;;;;;;;;;4857199;29;20209;-75
2021/08/12 10:22:00;;;;;;;7.70;3.50;;;;;;;;;;4856153;29;20209;-74
2021/08/12 10:24:29;;;;;;;5.07;2.93;;;;;;;;;;4856910;29;20300;-75
2021/08/12 10:26:58;;;;;;;5.07;3.23;;;;;;;;;;4858799;29;20240;-75
2021/08/12 10:29:28;;;;;;;5.43;3.17;;;;;;;;;;4863561;29;20716;-75
2021/08/12 10:31:56;;;;;;;6.93;3.20;;;;;;;;;;4863558;29;20214;-75
2021/08/12 10:34:25;;;;;;;8.67;3.13;;;;;;;;;;4856575;29;20209;-74
2021/08/12 10:36:52;;;;;;;5.40;3.00;;;;;;;;;;4859552;29;20202;-75
2021/08/12 10:39:21;;;;;;;6.07;3.07;;;;;;;;;;4858615;29;20223;-76
2021/08/12 10:41:48;;;;;;;6.70;3.00;;;;;;;;;;4859725;29;20779;-74
2021/08/12 10:44:19;;;;;;;4.63;3.30;;;;;;;;;;4824845;29;1101113;-75
2021/08/12 10:46:46;;;;;;;7.33;3.03;;;;;;;;;;4863158;29;20214;-75
2021/08/12 10:49:28;;;;;;;4.47;2.97;;;;;;;;;;4861234;29;20215;-75
2021/08/12 10:52:05;;;;;;;6.50;3.03;;;;;;;;;;4858894;29;20237;-75
2021/08/12 10:54:32;;;;;;;5.90;3.33;;;;;;;;;;4865586;29;20214;-75
2021/08/12 10:57:14;;;;;;;8.13;3.20;;;;;;;;;;4866178;29;20213;-75
2021/08/12 10:59:42;;;;;;;5.90;3.30;;;;;;;;;;4869249;29;21808;-76
2021/08/12 11:02:24;;;;;;;6.77;3.27;;;;;;;;;;4866511;29;20209;-75
2021/08/12 11:04:53;;;;;;;5.80;2.83;;;;;;;;;;4869899;29;20210;-76
2021/08/12 11:07:35;;;;;;;7.30;3.00;;;;;;;;;;4867207;29;20217;-75
2021/08/12 11:10:03;;;;;;;4.40;2.53;;;;;;;;;;4866822;29;20238;-75
2021/08/12 11:12:45;;;;;;;5.20;3.03;;;;;;;;;;4865975;29;20229;-75
2021/08/12 11:15:12;;;;;;;5.63;2.93;;;;;;;;;;4865476;29;20211;-75
2021/08/12 11:17:55;;;;;;;4.30;2.87;;;;;;;;;;4867429;29;20308;-74
2021/08/12 11:20:33;;;;;;;3.43;2.53;;;;;;;;;;4867449;29;20233;-74
2021/08/12 11:23:15;;;;;;;6.63;2.80;;;;;;;;;;4866039;29;20709;-75
2021/08/12 11:25:55;;;;;;;3.60;2.30;;;;;;;;;;4864782;29;20849;-75
2021/08/12 11:28:37;;;;;;;3.20;2.47;;;;;;;;;;4867472;29;20313;-75
2021/08/12 11:31:04;;;;;;;4.93;2.50;;;;;;;;;;4864435;29;20239;-73
2021/08/12 11:33:35;;;;;;;4.53;2.83;;;;;;;;;;4865937;29;20222;-75
2021/08/12 11:36:23;;;;;;;4.17;2.60;;;;;;;;;;4865660;29;20220;-75
2021/08/12 11:38:52;;;;;;;5.30;2.80;;;;;;;;;;4863148;29;20252;-75
2021/08/12 11:41:20;;;;;;;4.93;2.50;;;;;;;;;;4860427;29;20223;-75
2021/08/12 11:43:47;;;;;;;4.57;2.57;;;;;;;;;;4864282;29;20353;-75
2021/08/12 11:46:15;;;;;;;3.83;2.50;;;;;;;;;;4864493;29;20206;-75
2021/08/12 11:48:43;;;;;;;5.10;2.73;;;;;;;;;;4865270;29;20296;-75
2021/08/12 11:51:10;;;;;;;4.07;2.60;;;;;;;;;;4864104;29;20570;-75
2021/08/12 11:53:39;;;;;;;5.77;2.50;;;;;;;;;;4866140;29;20328;-75
2021/08/12 11:56:11;;;;;;;5.50;3.20;;;;;;;;;;4867839;29;20300;-74
2021/08/12 11:58:38;;;;;;;8.37;3.17;;;;;;;;;;4865862;29;20206;-75
2021/08/12 12:01:11;;;;;;;6.87;2.87;;;;;;;;;;4866304;29;20232;-75
2021/08/12 12:03:39;;;;;;;4.17;2.73;;;;;;;;;;4865551;29;20226;-74
2021/08/12 12:06:06;;;;;;;6.50;2.80;;;;;;;;;;4865218;29;20300;-75
2021/08/12 12:08:33;;;;;;;4.40;2.90;;;;;;;;;;4864305;29;20222;-74
2021/08/12 12:11:12;;;;;;;5.90;2.90;;;;;;;;;;4864111;29;20334;-75
2021/08/12 12:13:40;;;;;;;5.17;2.80;;;;;;;;;;4865912;29;20221;-75
2021/08/12 12:16:11;;;;;;;8.37;2.90;;;;;;;;;;4860891;29;20606;-74
2021/08/12 12:18:40;;;;;;;4.17;2.77;;;;;;;;;;4861786;29;20210;-75
2021/08/12 12:21:08;;;;;;;6.40;3.10;;;;;;;;;;4860266;29;20238;-75
2021/08/12 12:23:36;;;;;;;7.83;3.03;;;;;;;;;;4861629;29;20215;-75
2021/08/12 12:26:04;;;;;;;4.40;2.60;;;;;;;;;;4860959;29;20306;-76
2021/08/12 12:28:39;;;;;;;7.67;3.03;;;;;;;;;;4863439;29;20696;-74
2021/08/12 12:31:13;;;;;;;7.13;3.07;;;;;;;;;;4864901;29;20311;-75
2021/08/12 12:33:40;;;;;;;5.43;3.13;;;;;;;;;;4866249;29;20216;-75
2021/08/12 12:36:08;;;;;;;4.70;3.23;;;;;;;;;;4858523;29;20216;-74
2021/08/12 12:38:35;;;;;;;4.87;2.73;;;;;;;;;;4857753;29;20237;-75
2021/08/12 12:41:05;;;;;;;13.83;3.03;;;;;;;;;;4855607;29;20233;-75
2021/08/12 12:43:34;;;;;;;4.30;2.93;;;;;;;;;;4859987;29;20224;-75
2021/08/12 12:46:01;;;;;;;18.50;3.03;;;;;;;;;;4855807;29;20210;-75
2021/08/12 12:48:29;;;;;;;5.70;3.40;;;;;;;;;;4860415;29;20689;-75
2021/08/12 12:50:56;;;;;;;4.17;2.80;;;;;;;;;;4858946;29;20952;-75
2021/08/12 12:53:33;;;;;;;12.07;3.10;;;;;;;;;;4865029;29;20238;-74
2021/08/12 12:56:00;;;;;;;7.10;3.30;;;;;;;;;;4856501;29;20213;-75
2021/08/12 12:58:28;;;;;;;11.27;3.07;;;;;;;;;;4862257;29;20651;-75
2021/08/12 13:01:08;;;;;;;5.00;3.30;;;;;;;;;;4862576;29;20677;-75
2021/08/12 13:03:37;;;;;;;8.60;3.40;;;;;;;;;;4862422;29;20240;-75
2021/08/12 13:06:04;;;;;;;6.07;3.30;;;;;;;;;;4857930;29;20207;-75
2021/08/12 13:08:38;;;;;;;7.23;3.27;;;;;;;;;;4859243;29;20217;-75
2021/08/12 13:11:10;;;;;;;4.77;2.93;;;;;;;;;;4862444;29;20720;-74
2021/08/12 13:13:38;;;;;;;4.93;3.00;;;;;;;;;;4858389;29;20764;-74
2021/08/12 13:16:07;;;;;;;4.67;2.80;;;;;;;;;;4861918;29;20206;-74
2021/08/12 13:18:54;;;;;;;8.17;2.80;;;;;;;;;;4860006;29;20252;-74
2021/08/12 13:21:28;;;;;;;4.87;2.80;;;;;;;;;;4859837;29;20235;-75
2021/08/12 13:23:55;;;;;;;7.40;3.33;;;;;;;;;;4861363;29;20206;-75
2021/08/12 13:26:33;;;;;;;4.47;2.80;;;;;;;;;;4860318;29;20210;-74
2021/08/12 13:29:08;;;;;;;4.77;2.73;;;;;;;;;;4863207;29;20213;-74
2021/08/12 13:31:38;;;;;;;5.13;2.70;;;;;;;;;;4862091;29;20302;-75
2021/08/12 13:34:05;;;;;;;5.77;2.93;;;;;;;;;;4865915;29;20712;-73
2021/08/12 13:36:32;;;;;;;5.30;3.30;;;;;;;;;;4865742;29;20203;-73
2021/08/12 13:38:59;;;;;;;3.83;2.60;;;;;;;;;;4861945;29;20398;-73
2021/08/12 13:41:27;;;;;;;6.03;2.50;;;;;;;;;;4860600;29;20597;-73
2021/08/12 13:43:54;;;;;;;4.70;2.70;;;;;;;;;;4853116;29;20216;-73
2021/08/12 13:46:21;;;;;;;3.10;2.50;;;;;;;;;;4851949;29;20221;-74
2021/08/12 13:48:49;;;;;;;4.80;2.90;;;;;;;;;;4857794;29;20210;-74
2021/08/12 13:51:17;;;;;;;6.10;2.77;;;;;;;;;;4855019;29;20224;-74
2021/08/12 13:53:45;;;;;;;4.03;2.60;;;;;;;;;;4855643;29;20302;-72
2021/08/12 13:56:12;;;;;;;4.17;2.70;;;;;;;;;;4851491;29;20231;-74
2021/08/12 13:58:39;;;;;;;7.43;2.80;;;;;;;;;;4862187;29;20297;-72
2021/08/12 14:01:06;;;;;;;4.87;2.77;;;;;;;;;;4862047;29;20230;-72
2021/08/12 14:03:33;;;;;;;4.13;2.53;;;;;;;;;;4861382;29;20210;-73
2021/08/12 14:06:02;;;;;;;3.73;2.80;;;;;;;;;;4867256;29;20661;-74
2021/08/12 14:08:29;;;;;;;5.57;2.67;;;;;;;;;;4863875;29;20225;-74
2021/08/12 14:10:57;;;;;;;4.03;2.50;;;;;;;;;;4864710;29;20344;-73
2021/08/12 14:13:24;;;;;;;6.77;2.53;;;;;;;;;;4865752;29;20234;-73
2021/08/12 14:15:52;;;;;;;6.03;2.70;;;;;;;;;;4862141;29;20214;-73
2021/08/12 14:18:19;;;;;;;3.77;2.50;;;;;;;;;;4860703;29;20247;-74
2021/08/12 14:20:46;;;;;;;4.60;2.77;;;;;;;;;;4856949;29;20232;-73
2021/08/12 14:23:14;;;;;;;4.20;2.70;;;;;;;;;;4859922;29;20219;-73
2021/08/12 14:25:42;;;;;;;5.03;2.50;;;;;;;;;;4867169;29;20209;-73
2021/08/12 14:28:09;;;;;;;4.67;2.57;;;;;;;;;;4867194;29;20212;-73
2021/08/12 14:30:36;;;;;;;4.03;2.80;;;;;;;;;;4858518;29;20229;-73
2021/08/12 14:33:03;;;;;;;5.03;2.93;;;;;;;;;;4861139;29;20215;-73
2021/08/12 14:35:30;;;;;;;17.73;2.97;;;;;;;;;;4863500;29;20846;-76
2021/08/12 14:37:57;;;;;;;10.40;2.60;;;;;;;;;;4868068;29;20213;-76
2021/08/12 14:40:27;;;;;;;11.50;2.93;;;;;;;;;;4858442;29;20226;-75
2021/08/12 14:42:57;;;;;;;7.43;3.20;;;;;;;;;;4854943;29;20760;-75
2021/08/12 14:45:25;;;;;;;6.60;3.10;;;;;;;;;;4859380;29;21627;-76
2021/08/12 14:47:52;;;;;;;5.03;2.90;;;;;;;;;;4855274;29;20222;-77
2021/08/12 14:50:19;;;;;;;6.73;3.03;;;;;;;;;;4867146;29;20240;-76
2021/08/12 14:52:46;;;;;;;4.30;3.07;;;;;;;;;;4860527;29;20253;-76
2021/08/12 14:55:13;;;;;;;5.70;3.13;;;;;;;;;;4860780;29;20721;-76
2021/08/12 14:57:42;;;;;;;9.80;2.97;;;;;;;;;;4861411;29;20749;-76
2021/08/12 15:00:10;;;;;;;4.97;2.60;;;;;;;;;;4863457;29;20231;-76
2021/08/12 15:02:37;;;;;;;4.20;2.53;;;;;;;;;;4861919;29;20572;-76
2021/08/12 15:05:04;;;;;;;4.93;2.70;;;;;;;;;;4858608;29;20211;-76
2021/08/12 15:07:32;;;;;;;6.87;2.70;;;;;;;;;;4855068;29;20218;-75
2021/08/12 15:10:00;;;;;;;5.83;2.93;;;;;;;;;;4858757;29;20226;-75
2021/08/12 15:12:27;;;;;;;8.90;2.77;;;;;;;;;;4858142;29;20207;-75
2021/08/12 15:14:55;;;;;;;12.23;3.27;;;;;;;;;;4864247;29;20715;-74
2021/08/12 15:17:22;;;;;;;7.60;2.97;;;;;;;;;;4856710;29;20210;-75
2021/08/12 15:19:50;;;;;;;4.70;2.70;;;;;;;;;;4858614;29;20225;-74
2021/08/12 15:22:17;;;;;;;3.80;2.50;;;;;;;;;;4861325;29;20794;-75
2021/08/12 15:24:44;;;;;;;6.37;2.60;;;;;;;;;;4854914;29;20212;-75
2021/08/12 15:27:11;;;;;;;6.37;3.10;;;;;;;;;;4856445;29;20587;-75
2021/08/12 15:29:38;;;;;;;7.43;2.87;;;;;;;;;;4854544;29;20226;-76
2021/08/12 15:32:07;;;;;;;4.07;2.67;;;;;;;;;;4855660;29;20205;-75
2021/08/12 15:34:35;;;;;;;6.93;3.10;;;;;;;;;;4857300;29;20227;-74
2021/08/12 15:37:02;;;;;;;9.80;3.40;;;;;;;;;;4857574;29;20226;-75
2021/08/12 15:39:29;;;;;;;6.07;3.47;;;;;;;;;;4858356;29;20212;-76
2021/08/12 15:41:56;;;;;;;6.63;3.87;;;;;;;;;;4876461;23;20764;-73
2021/08/12 15:44:23;;;;;;;6.27;3.80;;;;;;;;;;4930510;23;20244;-86
2021/08/12 15:46:52;;;;;;;5.60;3.47;;;;;;;;;;4930251;29;20233;-87
2021/08/12 15:49:26;;;;;;;8.00;3.87;;;;;;;;;;4926135;29;20227;-86
2021/08/12 15:52:01;;;;;;;7.80;3.90;;;;;;;;;;4929308;29;20223;-86
2021/08/12 15:54:29;;;;;;;11.37;3.63;;;;;;;;;;4912252;29;20283;-86
2021/08/12 16:00:07;;;;;;;20.43;4.50;;;;;;;;;;4908136;29;20224;-85
2021/08/12 16:02:36;;;;;;;7.47;3.70;;;;;;;;;;4910896;29;20268;-87
2021/08/12 21:43:49;;;;;;;20.83;8.53;;;;;;;;;;4960961;23;20274;-85
2021/08/12 21:46:36;;;;;;;15.23;7.53;;;;;;;;;;4945364;29;20726;-84
2021/08/12 21:49:05;;;;;;;21.73;8.00;;;;;;;;;;4941848;29;20249;-84
